Wilson Heron — 9HJW9 — position and weather

sailwx.info

Track history (hours):
 
Tides and Currents Weather Stations Pressure Air Temp Water Temp Dewpoint Dewpoint Depression Visibility Wind Speed Wind Dir Waves Ship Positions

Wilson Heron

Last reported at 2016-Feb-05 22:32 UTC. Time now 2016-Feb-08 02:09 UTC.
Position N 51°05' E 004°21'.

Length 91 m; draft 5.8 m.

Type: Cargo ship. MMSI: 249075000.

Date/timePositionNaut miles runAvg speedWind from/ knotsBaromVisibWave heightAir tempDewpointWater temp
2016-Feb-05 22:32N 51°05' E 004°21'3 2.7
2016-Feb-05 21:33N 51°07' E 004°18'6 5.9
2016-Feb-05 20:33N 51°12' E 004°22'7 6.5
2016-Feb-05 19:33N 51°18' E 004°17'7 7.5
2016-Feb-05 18:33N 51°22' E 004°07'6 6.2
2016-Feb-05 17:33N 51°24' E 003°57'8 8.1
2016-Feb-05 16:33N 51°22' E 003°45'8 8.1
2016-Feb-05 15:33N 51°26' E 003°33'8 8.4
2016-Feb-05 14:33N 51°32' E 003°25'10 9.6
2016-Feb-05 13:33N 51°41' E 003°18'8 7.9
2016-Feb-05 12:32N 51°49' E 003°14'8 8.2
2016-Feb-05 11:32N 51°56' E 003°19'8 8.5
2016-Feb-05 10:33N 52°04' E 003°21'8 8.1
2016-Feb-05 09:33N 52°12' E 003°23'125 8.3
2016-Feb-04 18:32N 54°04' E 004°56'  
2016-Jan-29 02:11N 63°29' E 008°60'610.0
2016-Jan-29 01:33N 63°32' E 009°13'1010.3
2016-Jan-29 00:33N 63°37' E 009°32'8 8.0
2016-Jan-28 23:33N 63°35' E 009°50'1211.6
2016-Jan-28 22:33N 63°24' E 009°59'6 5.7
2016-Jan-28 21:33N 63°19' E 009°53'0 0.0
2016-Jan-28 20:33N 63°19' E 009°53'0 0.0
2016-Jan-28 19:33N 63°19' E 009°53'0 0.0
2016-Jan-28 18:33N 63°19' E 009°53'0 0.0
2016-Jan-28 17:33N 63°19' E 009°53'0 0.0
2016-Jan-28 16:33N 63°19' E 009°53'0 0.0
2016-Jan-28 15:33N 63°19' E 009°53'0 0.0
2016-Jan-28 14:30N 63°19' E 009°53'0 0.0
2016-Jan-28 13:33N 63°19' E 009°53'0 0.0
2016-Jan-28 12:27N 63°19' E 009°53'0 0.0
2016-Jan-28 11:30N 63°19' E 009°53'0 0.0
2016-Jan-28 10:33N 63°19' E 009°53'0 0.0
2016-Jan-28 09:33N 63°19' E 009°53'0 0.0
2016-Jan-28 08:33N 63°19' E 009°53'0 0.0
2016-Jan-28 07:33N 63°19' E 009°53'0 0.0
2016-Jan-28 06:33N 63°19' E 009°53'0 0.0
2016-Jan-28 05:33N 63°19' E 009°53'0 0.0
2016-Jan-28 04:33N 63°19' E 009°53'0 0.0
2016-Jan-28 03:33N 63°19' E 009°53'0 0.0
2016-Jan-28 02:33N 63°19' E 009°53'0 0.0
2016-Jan-28 01:27N 63°19' E 009°53'0 0.0
2016-Jan-28 00:33N 63°19' E 009°53'0 0.0
2016-Jan-27 23:33N 63°19' E 009°53'0 0.0
2016-Jan-27 22:33N 63°19' E 009°53'0 0.0
2016-Jan-27 21:33N 63°19' E 009°53'0 0.0
2016-Jan-27 20:33N 63°19' E 009°53'0 0.0
2016-Jan-27 19:33N 63°19' E 009°53'0 0.0
2016-Jan-27 18:33N 63°19' E 009°53'0 0.0
2016-Jan-27 17:33N 63°19' E 009°53'0 0.0
2016-Jan-27 16:33N 63°19' E 009°53'3 2.7
2016-Jan-27 15:33N 63°21' E 009°56'9 9.1
2016-Jan-27 14:33N 63°30' E 009°54'10 9.9
2016-Jan-27 13:33N 63°39' E 009°44'1210.8
2016-Jan-27 12:27N 63°34' E 009°21'  
Track history (hours):
 
Tides and Currents Weather Stations Pressure Air Temp Water Temp Dewpoint Dewpoint Depression Visibility Wind Speed Wind Dir Waves Ship Positions

Wilson Heron

Last reported at 2016-Feb-05 22:32 UTC. Time now 2016-Feb-08 02:09 UTC.
Position N 51°05' E 004°21'.

Length 91 m; draft 5.8 m.

Type: Cargo ship. MMSI: 249075000.

Date/timePositionNaut miles runAvg speedWind from/ knotsBaromVisibWave heightAir tempDewpointWater temp
2016-Feb-05 22:32N 51°05' E 004°21'3 2.7
2016-Feb-05 21:33N 51°07' E 004°18'6 5.9
2016-Feb-05 20:33N 51°12' E 004°22'7 6.5
2016-Feb-05 19:33N 51°18' E 004°17'7 7.5
2016-Feb-05 18:33N 51°22' E 004°07'6 6.2
2016-Feb-05 17:33N 51°24' E 003°57'8 8.1
2016-Feb-05 16:33N 51°22' E 003°45'8 8.1
2016-Feb-05 15:33N 51°26' E 003°33'8 8.4
2016-Feb-05 14:33N 51°32' E 003°25'10 9.6
2016-Feb-05 13:33N 51°41' E 003°18'8 7.9
2016-Feb-05 12:32N 51°49' E 003°14'8 8.2
2016-Feb-05 11:32N 51°56' E 003°19'8 8.5
2016-Feb-05 10:33N 52°04' E 003°21'8 8.1
2016-Feb-05 09:33N 52°12' E 003°23'125 8.3
2016-Feb-04 18:32N 54°04' E 004°56'  
2016-Jan-29 02:11N 63°29' E 008°60'610.0
2016-Jan-29 01:33N 63°32' E 009°13'1010.3
2016-Jan-29 00:33N 63°37' E 009°32'8 8.0
2016-Jan-28 23:33N 63°35' E 009°50'1211.6
2016-Jan-28 22:33N 63°24' E 009°59'6 5.7
2016-Jan-28 21:33N 63°19' E 009°53'0 0.0
2016-Jan-28 20:33N 63°19' E 009°53'0 0.0
2016-Jan-28 19:33N 63°19' E 009°53'0 0.0
2016-Jan-28 18:33N 63°19' E 009°53'0 0.0
2016-Jan-28 17:33N 63°19' E 009°53'0 0.0
2016-Jan-28 16:33N 63°19' E 009°53'0 0.0
2016-Jan-28 15:33N 63°19' E 009°53'0 0.0
2016-Jan-28 14:30N 63°19' E 009°53'0 0.0
2016-Jan-28 13:33N 63°19' E 009°53'0 0.0
2016-Jan-28 12:27N 63°19' E 009°53'0 0.0
2016-Jan-28 11:30N 63°19' E 009°53'0 0.0
2016-Jan-28 10:33N 63°19' E 009°53'0 0.0
2016-Jan-28 09:33N 63°19' E 009°53'0 0.0
2016-Jan-28 08:33N 63°19' E 009°53'0 0.0
2016-Jan-28 07:33N 63°19' E 009°53'0 0.0
2016-Jan-28 06:33N 63°19' E 009°53'0 0.0
2016-Jan-28 05:33N 63°19' E 009°53'0 0.0
2016-Jan-28 04:33N 63°19' E 009°53'0 0.0
2016-Jan-28 03:33N 63°19' E 009°53'0 0.0
2016-Jan-28 02:33N 63°19' E 009°53'0 0.0
2016-Jan-28 01:27N 63°19' E 009°53'0 0.0
2016-Jan-28 00:33N 63°19' E 009°53'0 0.0
2016-Jan-27 23:33N 63°19' E 009°53'0 0.0
2016-Jan-27 22:33N 63°19' E 009°53'0 0.0
2016-Jan-27 21:33N 63°19' E 009°53'0 0.0
2016-Jan-27 20:33N 63°19' E 009°53'0 0.0
2016-Jan-27 19:33N 63°19' E 009°53'0 0.0
2016-Jan-27 18:33N 63°19' E 009°53'0 0.0
2016-Jan-27 17:33N 63°19' E 009°53'0 0.0
2016-Jan-27 16:33N 63°19' E 009°53'3 2.7
2016-Jan-27 15:33N 63°21' E 009°56'9 9.1
2016-Jan-27 14:33N 63°30' E 009°54'10 9.9
2016-Jan-27 13:33N 63°39' E 009°44'1210.8
2016-Jan-27 12:27N 63°34' E 009°21'  

Dump ship's entire track history